Kinugasamaru — JD2814 — position and weather

sailwx.info

Track history (hours):
 
Tides and Currents Weather Stations Pressure Air Temp Water Temp Dewpoint Dewpoint Depression Visibility Wind Speed Wind Dir Waves Ship Positions

Kinugasamaru

Last reported at 2017-Oct-17 10:55 UTC. Time now 2017-Oct-17 11:10 UTC.
Position N 34°39' E 135°28'.

Length 37 m; draft 3.8 m.

Type: Tug. MMSI: 431000847.

Date/timePositionNaut miles runAvg speedWind from/ knotsBaromVisibWave heightAir tempDewpointWater temp
2017-Oct-17 10:55N 34°39' E 135°28'0 0.0
2017-Oct-17 10:15N 34°39' E 135°28'0 0.0
2017-Oct-17 09:43N 34°39' E 135°28'0 0.0
2017-Oct-17 09:30N 34°39' E 135°28'0 0.0
2017-Oct-17 08:59N 34°39' E 135°28'0 0.0
2017-Oct-17 02:29N 34°39' E 135°28'0 0.0
2017-Oct-17 01:49N 34°39' E 135°28'0 0.0
2017-Oct-17 01:06N 34°39' E 135°28'0 0.0
2017-Oct-17 00:51N 34°39' E 135°28'0 0.0
2017-Oct-17 00:30N 34°39' E 135°28'0 0.0
2017-Oct-16 23:49N 34°39' E 135°28'0 0.0
2017-Oct-16 23:30N 34°39' E 135°28'0 0.0
2017-Oct-16 23:00N 34°39' E 135°28'0 0.0
2017-Oct-16 22:28N 34°39' E 135°28'0 0.0
2017-Oct-16 22:00N 34°39' E 135°28'0 0.0
2017-Oct-16 21:30N 34°39' E 135°28'0 0.0
2017-Oct-16 21:00N 34°39' E 135°28'0 0.0
2017-Oct-16 20:30N 34°39' E 135°28'0 0.0
2017-Oct-16 20:00N 34°39' E 135°28'0 0.0
2017-Oct-16 19:30N 34°39' E 135°28'0 0.0
2017-Oct-16 19:00N 34°39' E 135°28'0 0.0
2017-Oct-16 18:30N 34°39' E 135°28'0 0.0
2017-Oct-16 18:00N 34°39' E 135°28'0 0.0
2017-Oct-16 17:30N 34°39' E 135°28'0 0.0
2017-Oct-16 17:00N 34°39' E 135°28'0 0.0
2017-Oct-16 16:30N 34°39' E 135°28'0 0.0
2017-Oct-16 16:00N 34°39' E 135°28'0 0.0
2017-Oct-16 15:30N 34°39' E 135°28'0 0.0
2017-Oct-16 15:00N 34°39' E 135°28'0 0.0
2017-Oct-16 14:29N 34°39' E 135°28'0 0.0
2017-Oct-16 13:30N 34°39' E 135°28'0 0.0
2017-Oct-16 13:00N 34°39' E 135°28'0 0.0
2017-Oct-16 12:29N 34°39' E 135°28'0 0.0
2017-Oct-16 12:00N 34°39' E 135°28'0 0.0
2017-Oct-16 11:30N 34°39' E 135°28'0 0.0
2017-Oct-16 10:59N 34°39' E 135°28'0 0.0
2017-Oct-16 10:26N 34°39' E 135°28'0 0.0
2017-Oct-16 10:00N 34°39' E 135°28'0 0.0
2017-Oct-16 09:25N 34°39' E 135°28'0 0.6
2017-Oct-16 08:59N 34°39' E 135°28'3 5.8
2017-Oct-16 08:29N 34°39' E 135°24'0 0.2
2017-Oct-16 08:00N 34°39' E 135°24'1 1.4
2017-Oct-16 07:30N 34°40' E 135°24'0 0.0
2017-Oct-16 07:00N 34°40' E 135°24'0 0.0
2017-Oct-16 06:30N 34°40' E 135°24'0 0.0
2017-Oct-16 06:00N 34°40' E 135°24'2 4.8
2017-Oct-16 05:30N 34°37' E 135°25'3 5.2
2017-Oct-16 05:00N 34°39' E 135°27'0 0.8
2017-Oct-16 04:30N 34°39' E 135°28'0 0.0
2017-Oct-16 00:50N 34°39' E 135°28'0 0.0
2017-Oct-16 00:29N 34°39' E 135°28'0 0.0
2017-Oct-15 23:49N 34°39' E 135°28'0 0.0
2017-Oct-15 23:30N 34°39' E 135°28'3 6.5
2017-Oct-15 23:00N 34°39' E 135°24'1 1.0
2017-Oct-15 22:29N 34°38' E 135°24'1 1.4
2017-Oct-15 22:00N 34°38' E 135°23'4 7.2
2017-Oct-15 21:30N 34°39' E 135°27'0 0.9
2017-Oct-15 21:00N 34°39' E 135°28'0 0.0
2017-Oct-15 20:29N 34°39' E 135°28'0 0.0
2017-Oct-15 20:00N 34°39' E 135°28'0 0.0
2017-Oct-15 19:30N 34°39' E 135°28'0 0.0
2017-Oct-15 19:00N 34°39' E 135°28'0 0.0
2017-Oct-15 18:30N 34°39' E 135°28'0 0.0
2017-Oct-15 18:00N 34°39' E 135°28'0 0.0
2017-Oct-15 17:30N 34°39' E 135°28'0 0.0
2017-Oct-15 17:00N 34°39' E 135°28'0 0.0
2017-Oct-15 16:30N 34°39' E 135°28'0 0.0
2017-Oct-15 16:00N 34°39' E 135°28'0 0.0
2017-Oct-15 15:30N 34°39' E 135°28'0 0.0
2017-Oct-15 15:00N 34°39' E 135°28'0 0.0
2017-Oct-15 14:00N 34°39' E 135°28'0 0.0
2017-Oct-15 13:30N 34°39' E 135°28'0 0.0
2017-Oct-15 13:00N 34°39' E 135°28'0 0.0
2017-Oct-15 12:30N 34°39' E 135°28'2 3.7
2017-Oct-15 12:00N 34°39' E 135°26'0 0.4
2017-Oct-15 11:30N 34°39' E 135°26'1 2.2
2017-Oct-15 11:00N 34°39' E 135°27'1 1.8
2017-Oct-15 10:30N 34°39' E 135°28'0 0.0
2017-Oct-15 09:59N 34°39' E 135°28'0 0.0
2017-Oct-15 09:30N 34°39' E 135°28'0 0.0
2017-Oct-15 08:59N 34°39' E 135°28'0 0.0
2017-Oct-15 08:29N 34°39' E 135°28'0 0.0
2017-Oct-15 08:00N 34°39' E 135°28'0 0.0
2017-Oct-15 07:30N 34°39' E 135°28'0 0.0
2017-Oct-15 06:47N 34°39' E 135°28'0 0.0
2017-Oct-15 06:26N 34°39' E 135°28'0 0.0
2017-Oct-15 05:38N 34°39' E 135°28'0 0.0
2017-Oct-15 05:18N 34°39' E 135°28'0 0.0
2017-Oct-15 04:59N 34°39' E 135°28'0 0.0
2017-Oct-15 04:25N 34°39' E 135°28'0 0.0
2017-Oct-15 04:00N 34°39' E 135°28'0 0.0
2017-Oct-15 03:29N 34°39' E 135°28'1 1.5
2017-Oct-15 03:00N 34°39' E 135°27'2 5.0
2017-Oct-15 02:30N 34°39' E 135°24'1 1.8
2017-Oct-15 02:00N 34°38' E 135°23'2 3.5
2017-Oct-15 01:30N 34°40' E 135°24'0 0.0
2017-Oct-15 01:00N 34°40' E 135°24'0 0.0
2017-Oct-15 00:26N 34°40' E 135°24'0 0.0
2017-Oct-15 00:00N 34°40' E 135°24'0 0.0
2017-Oct-14 23:30N 34°40' E 135°24'1 1.3
2017-Oct-14 23:00N 34°39' E 135°25'1 1.4
2017-Oct-14 22:30N 34°39' E 135°24'1 1.9
2017-Oct-14 21:59N 34°38' E 135°24'3 6.0
2017-Oct-14 21:30N 34°39' E 135°27'1 1.7
2017-Oct-14 21:00N 34°39' E 135°28'0 0.0
2017-Oct-14 20:30N 34°39' E 135°28'0 0.0
2017-Oct-14 19:59N 34°39' E 135°28'0 0.0
2017-Oct-14 19:30N 34°39' E 135°28'0 0.0
2017-Oct-14 19:00N 34°39' E 135°28'0 0.0
2017-Oct-14 18:30N 34°39' E 135°28'0 0.0
2017-Oct-14 18:00N 34°39' E 135°28'0 0.0
2017-Oct-14 17:30N 34°39' E 135°28'0 0.0
2017-Oct-14 17:00N 34°39' E 135°28'0 0.0
2017-Oct-14 16:30N 34°39' E 135°28'0 0.0
2017-Oct-14 16:00N 34°39' E 135°28'0 0.0
2017-Oct-14 15:30N 34°39' E 135°28'0 0.0
2017-Oct-14 14:59N 34°39' E 135°28'0 0.0
2017-Oct-14 14:30N 34°39' E 135°28'0 0.0
2017-Oct-14 14:00N 34°39' E 135°28'0 0.0
2017-Oct-14 13:28N 34°39' E 135°28'0 0.0
2017-Oct-14 13:00N 34°39' E 135°28'0 0.0
2017-Oct-14 12:30N 34°39' E 135°28'0 0.0
2017-Oct-14 12:00N 34°39' E 135°28'1 2.0
2017-Oct-14 11:30N 34°39' E 135°27'1 2.4
2017-Oct-14 11:00N 34°39' E 135°26'0 0.2
2017-Oct-14 10:29N 34°39' E 135°26'1 2.1
2017-Oct-14 10:00N 34°39' E 135°26'1 2.3
2017-Oct-14 09:28N 34°39' E 135°28'0 0.0
2017-Oct-14 09:00N 34°39' E 135°28'0 0.0
2017-Oct-14 08:30N 34°39' E 135°28'0 0.0
2017-Oct-14 07:59N 34°39' E 135°28'0 0.0
2017-Oct-14 07:28N 34°39' E 135°28'0 0.0
2017-Oct-14 06:53N 34°39' E 135°28'0 0.0
2017-Oct-14 06:30N 34°39' E 135°28'0 0.0
2017-Oct-14 00:33N 34°39' E 135°28'0 9.3
2017-Oct-14 00:30N 34°39' E 135°27'1 2.8
2017-Oct-14 00:00N 34°40' E 135°26'2 3.0
2017-Oct-13 23:30N 34°39' E 135°24'1 1.6
2017-Oct-13 23:00N 34°40' E 135°24'0 0.0
2017-Oct-13 22:30N 34°40' E 135°24'0 0.0
2017-Oct-13 22:00N 34°40' E 135°24'1 1.6
2017-Oct-13 21:30N 34°39' E 135°25'1 1.6
2017-Oct-13 21:00N 34°39' E 135°26'0 0.0
2017-Oct-13 20:30N 34°39' E 135°26'2 3.7
2017-Oct-13 20:00N 34°39' E 135°28'0 0.0
2017-Oct-13 19:29N 34°39' E 135°28'0 0.0
2017-Oct-13 18:57N 34°39' E 135°28'0 0.0
2017-Oct-13 18:27N 34°39' E 135°28'0 0.0
2017-Oct-13 18:00N 34°39' E 135°28'0 0.0
2017-Oct-13 17:30N 34°39' E 135°28'0 0.0
2017-Oct-13 17:00N 34°39' E 135°28'0 0.0
2017-Oct-13 16:30N 34°39' E 135°28'0 0.0
2017-Oct-13 16:00N 34°39' E 135°28'0 0.0
2017-Oct-13 15:30N 34°39' E 135°28'0 0.0
2017-Oct-13 15:00N 34°39' E 135°28'0 0.0
2017-Oct-13 14:30N 34°39' E 135°28'0 0.0
2017-Oct-13 14:00N 34°39' E 135°28'0 0.0
2017-Oct-13 13:30N 34°39' E 135°28'0 0.0
2017-Oct-13 13:00N 34°39' E 135°28'0 0.0
2017-Oct-13 12:30N 34°39' E 135°28'0 0.0
2017-Oct-13 12:00N 34°39' E 135°28'0 0.0
2017-Oct-13 11:28N 34°39' E 135°28'0 0.0
2017-Oct-13 11:00N 34°39' E 135°28'0 0.0
2017-Oct-13 10:30N 34°39' E 135°28'0 0.0
2017-Oct-13 10:00N 34°39' E 135°28'0 0.0
2017-Oct-13 09:29N 34°39' E 135°28'0 0.0
2017-Oct-13 09:00N 34°39' E 135°28'0 0.0
2017-Oct-13 08:26N 34°39' E 135°28'0 0.0
2017-Oct-13 06:32N 34°39' E 135°28'0 0.0
2017-Oct-13 04:17N 34°39' E 135°28'3 9.5
2017-Oct-13 04:00N 34°39' E 135°25'5 3.0
2017-Oct-13 02:13N 34°33' E 135°25'2 4.2
2017-Oct-13 01:45N 34°33' E 135°23'2 9.6
2017-Oct-13 01:30N 34°33' E 135°20'0 0.9
2017-Oct-13 01:00N 34°34' E 135°20'2 3.8
2017-Oct-13 00:30N 34°35' E 135°21'510.3
2017-Oct-13 00:00N 34°39' E 135°26'1 2.4
2017-Oct-12 23:24N 34°39' E 135°28'0 0.0
2017-Oct-12 22:58N 34°39' E 135°28'0 0.0
2017-Oct-12 22:30N 34°39' E 135°28'0 0.0
2017-Oct-12 22:00N 34°39' E 135°28'0 0.0
2017-Oct-12 21:23N 34°39' E 135°28'0 0.0
2017-Oct-12 20:59N 34°39' E 135°28'0 0.0
2017-Oct-12 20:29N 34°39' E 135°28'0 0.0
2017-Oct-12 20:00N 34°39' E 135°28'0 0.0
2017-Oct-12 19:30N 34°39' E 135°28'0 0.0
2017-Oct-12 19:00N 34°39' E 135°28'0 0.0
2017-Oct-12 18:30N 34°39' E 135°28'0 0.0
2017-Oct-12 18:00N 34°39' E 135°28'0 0.0
2017-Oct-12 17:30N 34°39' E 135°28'0 0.0
2017-Oct-12 17:00N 34°39' E 135°28'0 0.0
2017-Oct-12 16:30N 34°39' E 135°28'0 0.0
2017-Oct-12 16:00N 34°39' E 135°28'0 0.0
2017-Oct-12 15:30N 34°39' E 135°28'0 0.0
2017-Oct-12 15:00N 34°39' E 135°28'0 0.0
2017-Oct-12 14:30N 34°39' E 135°28'0 0.0
2017-Oct-12 14:00N 34°39' E 135°28'0 0.0
2017-Oct-12 13:30N 34°39' E 135°28'0 0.0
2017-Oct-12 13:00N 34°39' E 135°28'0 0.0
2017-Oct-12 12:28N 34°39' E 135°28'0 0.0
2017-Oct-12 11:59N 34°39' E 135°28'0 0.0
2017-Oct-12 11:28N 34°39' E 135°28'0 0.0
2017-Oct-12 11:00N 34°39' E 135°28'0 0.0
2017-Oct-12 10:30N 34°39' E 135°28'0 0.0
2017-Oct-12 10:00N 34°39' E 135°28'0 0.0
2017-Oct-12 09:27N 34°39' E 135°28'0 0.0
2017-Oct-12 08:54N 34°39' E 135°28'0 0.0
2017-Oct-12 08:18N 34°39' E 135°28'0 0.0
2017-Oct-12 07:00N 34°39' E 135°28'0 0.0
2017-Oct-12 06:29N 34°39' E 135°28'0 0.0
2017-Oct-12 04:15N 34°39' E 135°28'1 1.0
2017-Oct-12 03:15N 34°39' E 135°27'1 4.5
2017-Oct-12 03:00N 34°40' E 135°26'0 0.5
2017-Oct-12 02:28N 34°40' E 135°26'1 2.3
2017-Oct-12 02:00N 34°39' E 135°27'1 0.3
2017-Oct-11 23:21N 34°39' E 135°28'0 0.0
2017-Oct-11 23:00N 34°39' E 135°28'0 0.0
2017-Oct-11 22:30N 34°39' E 135°28'0 0.0
2017-Oct-11 22:00N 34°39' E 135°28'0 0.0
2017-Oct-11 21:29N 34°39' E 135°28'0 0.0
2017-Oct-11 20:59N 34°39' E 135°28'0 0.0
2017-Oct-11 20:28N 34°39' E 135°28'0 0.0
2017-Oct-11 20:00N 34°39' E 135°28'0 0.0
2017-Oct-11 19:30N 34°39' E 135°28'0 0.0
2017-Oct-11 19:00N 34°39' E 135°28'0 0.0
2017-Oct-11 18:30N 34°39' E 135°28'0 0.0
2017-Oct-11 18:00N 34°39' E 135°28'0 0.0
2017-Oct-11 17:27N 34°39' E 135°28'0 0.0
2017-Oct-11 17:00N 34°39' E 135°28'6 0.4
2017-Oct-11 00:00N 34°33' E 135°25'1 1.2
2017-Oct-10 23:11N 34°33' E 135°26'1 6.9
2017-Oct-10 22:58N 34°34' E 135°24'510.5
2017-Oct-10 22:30N 34°38' E 135°24'3 5.6
2017-Oct-10 21:58N 34°39' E 135°28'0 0.0
2017-Oct-10 21:30N 34°39' E 135°28'0 0.0
2017-Oct-10 20:59N 34°39' E 135°28'0 0.0
2017-Oct-10 20:30N 34°39' E 135°28'0 0.0
2017-Oct-10 20:00N 34°39' E 135°28'0 0.0
2017-Oct-10 19:30N 34°39' E 135°28'0 0.0
2017-Oct-10 18:59N 34°39' E 135°28'0 0.0
2017-Oct-10 18:30N 34°39' E 135°28'0 0.0
2017-Oct-10 18:00N 34°39' E 135°28'0 0.0
2017-Oct-10 17:30N 34°39' E 135°28'0 0.0
2017-Oct-10 17:00N 34°39' E 135°28'0 0.0
2017-Oct-10 16:30N 34°39' E 135°28'0 0.0
2017-Oct-10 16:00N 34°39' E 135°28'0 0.0
2017-Oct-10 15:30N 34°39' E 135°28'0 0.0
2017-Oct-10 15:00N 34°39' E 135°28'0 0.0
2017-Oct-10 13:59N 34°39' E 135°28'0 0.0
2017-Oct-10 13:30N 34°39' E 135°28'0 0.0
2017-Oct-10 13:00N 34°39' E 135°28'0 0.0
2017-Oct-10 12:29N 34°39' E 135°28'0 0.0
2017-Oct-10 11:56N 34°39' E 135°28'0 0.0
2017-Oct-10 11:30N 34°39' E 135°28'0 0.0
2017-Oct-10 11:00N 34°39' E 135°28'0 0.0
2017-Oct-10 10:30N 34°39' E 135°28'0 0.0
2017-Oct-10 10:00N 34°39' E 135°28'0 0.0
2017-Oct-10 09:30N 34°39' E 135°28'0 0.0
2017-Oct-10 08:59N 34°39' E 135°28'0 0.0
2017-Oct-10 08:27N 34°39' E 135°28'0 0.0
2017-Oct-10 07:58N 34°39' E 135°28'0 0.0
2017-Oct-10 07:30N 34°39' E 135°28'0 0.0
2017-Oct-10 05:40N 34°39' E 135°28'0 0.0
2017-Oct-10 05:13N 34°39' E 135°28'0 0.0
2017-Oct-10 02:19N 34°39' E 135°28'0 1.5
2017-Oct-10 02:00N 34°39' E 135°27'4 8.3
2017-Oct-10 01:30N 34°36' E 135°24'2 4.3
2017-Oct-10 01:00N 34°34' E 135°24'0 0.3
2017-Oct-10 00:21N 34°34' E 135°24'2 5.1
2017-Oct-09 23:59N 34°36' E 135°24'0 0.0
2017-Oct-09 23:30N 34°36' E 135°24'0 0.0
2017-Oct-09 23:00N 34°36' E 135°24'0 0.0
2017-Oct-09 22:30N 34°36' E 135°24'0 0.0
2017-Oct-09 22:00N 34°36' E 135°24'2 3.3
2017-Oct-09 21:30N 34°38' E 135°23'2 3.4
2017-Oct-09 21:00N 34°39' E 135°24'0 0.2
2017-Oct-09 20:30N 34°39' E 135°24'3 6.0
2017-Oct-09 20:00N 34°39' E 135°28'0 0.0
2017-Oct-09 19:29N 34°39' E 135°28'0 0.0
2017-Oct-09 18:56N 34°39' E 135°28'0 0.0
2017-Oct-09 15:09N 34°39' E 135°28'0 0.0
2017-Oct-09 14:59N 34°39' E 135°28'0 0.0
2017-Oct-09 14:30N 34°39' E 135°28'0 0.0
2017-Oct-09 14:00N 34°39' E 135°28'0 0.0
2017-Oct-09 13:30N 34°39' E 135°28'0 0.0
2017-Oct-09 13:00N 34°39' E 135°28'0 0.0
2017-Oct-09 12:30N 34°39' E 135°28'0 0.0
2017-Oct-09 12:00N 34°39' E 135°28'0 0.0
2017-Oct-09 11:30N 34°39' E 135°28'0 0.0
2017-Oct-09 11:00N 34°39' E 135°28'2 4.2
2017-Oct-09 10:30N 34°39' E 135°25'0 0.3
2017-Oct-09 10:00N 34°39' E 135°26'1 2.1
2017-Oct-09 09:30N 34°39' E 135°27'1 1.8
2017-Oct-09 08:58N 34°39' E 135°28'0 0.0
2017-Oct-09 08:19N 34°39' E 135°28'0 0.0
2017-Oct-09 02:29N 34°39' E 135°28'5 9.4
2017-Oct-09 02:00N 34°36' E 135°23'3 1.7
2017-Oct-09 00:12N 34°33' E 135°23'2 6.1
2017-Oct-08 23:55N 34°33' E 135°21'0 1.0
2017-Oct-08 23:30N 34°33' E 135°20'4 7.7
2017-Oct-08 23:00N 34°37' E 135°22'4 8.4
2017-Oct-08 22:30N 34°39' E 135°27'1 1.9
2017-Oct-08 22:00N 34°39' E 135°28'0 0.0
2017-Oct-08 21:30N 34°39' E 135°28'0 0.0
2017-Oct-08 21:00N 34°39' E 135°28'0 0.0
2017-Oct-08 20:30N 34°39' E 135°28'0 0.0
2017-Oct-08 20:00N 34°39' E 135°28'0 0.0
2017-Oct-08 19:27N 34°39' E 135°28'0 0.0
2017-Oct-08 18:59N 34°39' E 135°28'0 0.0
2017-Oct-08 18:21N 34°39' E 135°28'0 0.0
2017-Oct-08 18:00N 34°39' E 135°28'0 0.0
2017-Oct-08 17:30N 34°39' E 135°28'0 0.0
2017-Oct-08 17:00N 34°39' E 135°28'0 0.0
2017-Oct-08 16:30N 34°39' E 135°28'0 0.0
2017-Oct-08 16:00N 34°39' E 135°28'0 0.0
2017-Oct-08 15:22N 34°39' E 135°28'0 0.0
2017-Oct-08 15:00N 34°39' E 135°28'0 0.0
2017-Oct-08 14:30N 34°39' E 135°28'0 0.0
2017-Oct-08 14:00N 34°39' E 135°28'0 0.0
2017-Oct-08 13:30N 34°39' E 135°28'0 0.0
2017-Oct-08 13:00N 34°39' E 135°28'0 0.0
2017-Oct-08 12:30N 34°39' E 135°28'0 0.0
2017-Oct-08 11:58N 34°39' E 135°28'0 0.0
2017-Oct-08 11:30N 34°39' E 135°28'0 0.0
2017-Oct-08 11:00N 34°39' E 135°28'0 0.0
2017-Oct-08 10:28N 34°39' E 135°28'0 0.0
2017-Oct-08 09:58N 34°39' E 135°28'0 0.0
2017-Oct-08 09:27N 34°39' E 135°28'0 0.0
2017-Oct-08 08:59N 34°39' E 135°28'0 0.0
2017-Oct-08 08:26N 34°39' E 135°28'0 0.6
2017-Oct-08 07:39N 34°39' E 135°27'210.3
2017-Oct-08 07:30N 34°39' E 135°26'1 2.1
2017-Oct-08 06:59N 34°40' E 135°25'2 3.3
2017-Oct-08 06:27N 34°38' E 135°23'0 0.1
2017-Oct-08 06:00N 34°38' E 135°23'2 4.5
2017-Oct-08 05:29N 34°39' E 135°26'1 0.3
2017-Oct-08 01:11N 34°39' E 135°28'0 0.0
2017-Oct-08 00:58N 34°39' E 135°28'0 0.0
2017-Oct-08 00:30N 34°39' E 135°28'0 0.0
2017-Oct-08 00:00N 34°39' E 135°28'0 0.0
2017-Oct-07 23:30N 34°39' E 135°28'3 6.2
2017-Oct-07 23:00N 34°39' E 135°24'0 0.8
2017-Oct-07 22:30N 34°39' E 135°24'2 3.0
2017-Oct-07 22:01N 34°38' E 135°22'4 7.6
2017-Oct-07 21:30N 34°39' E 135°27'1 1.9
2017-Oct-07 21:00N 34°39' E 135°28'0 0.0
2017-Oct-07 20:27N 34°39' E 135°28'0 0.0
2017-Oct-07 19:52N 34°39' E 135°28'0 0.0
2017-Oct-07 19:28N 34°39' E 135°28'0 0.0
2017-Oct-07 19:00N 34°39' E 135°28'0 0.0
2017-Oct-07 18:27N 34°39' E 135°28'0 0.0
2017-Oct-07 17:56N 34°39' E 135°28'0 0.0
2017-Oct-07 17:29N 34°39' E 135°28'0 0.0
2017-Oct-07 17:00N 34°39' E 135°28'0 0.0
2017-Oct-07 16:25N 34°39' E 135°28'0 0.0
2017-Oct-07 15:52N 34°39' E 135°28'0 0.0
2017-Oct-07 15:30N 34°39' E 135°28'0 0.0
2017-Oct-07 14:59N 34°39' E 135°28'0 0.0
2017-Oct-07 14:30N 34°39' E 135°28'0 0.0
2017-Oct-07 13:59N 34°39' E 135°28'0 0.0
2017-Oct-07 13:30N 34°39' E 135°28'0 0.0
2017-Oct-07 12:59N 34°39' E 135°28'0 0.0
2017-Oct-07 12:25N 34°39' E 135°28'0 0.0
2017-Oct-07 11:58N 34°39' E 135°28'0 0.0
2017-Oct-07 11:30N 34°39' E 135°28'0 0.0
2017-Oct-07 11:00N 34°39' E 135°28'  
Track history (hours):
 
Tides and Currents Weather Stations Pressure Air Temp Water Temp Dewpoint Dewpoint Depression Visibility Wind Speed Wind Dir Waves Ship Positions

Kinugasamaru

Last reported at 2017-Oct-17 10:55 UTC. Time now 2017-Oct-17 11:10 UTC.
Position N 34°39' E 135°28'.

Length 37 m; draft 3.8 m.

Type: Tug. MMSI: 431000847.

Date/timePositionNaut miles runAvg speedWind from/ knotsBaromVisibWave heightAir tempDewpointWater temp
2017-Oct-17 10:55N 34°39' E 135°28'0 0.0
2017-Oct-17 10:15N 34°39' E 135°28'0 0.0
2017-Oct-17 09:43N 34°39' E 135°28'0 0.0
2017-Oct-17 09:30N 34°39' E 135°28'0 0.0
2017-Oct-17 08:59N 34°39' E 135°28'0 0.0
2017-Oct-17 02:29N 34°39' E 135°28'0 0.0
2017-Oct-17 01:49N 34°39' E 135°28'0 0.0
2017-Oct-17 01:06N 34°39' E 135°28'0 0.0
2017-Oct-17 00:51N 34°39' E 135°28'0 0.0
2017-Oct-17 00:30N 34°39' E 135°28'0 0.0
2017-Oct-16 23:49N 34°39' E 135°28'0 0.0
2017-Oct-16 23:30N 34°39' E 135°28'0 0.0
2017-Oct-16 23:00N 34°39' E 135°28'0 0.0
2017-Oct-16 22:28N 34°39' E 135°28'0 0.0
2017-Oct-16 22:00N 34°39' E 135°28'0 0.0
2017-Oct-16 21:30N 34°39' E 135°28'0 0.0
2017-Oct-16 21:00N 34°39' E 135°28'0 0.0
2017-Oct-16 20:30N 34°39' E 135°28'0 0.0
2017-Oct-16 20:00N 34°39' E 135°28'0 0.0
2017-Oct-16 19:30N 34°39' E 135°28'0 0.0
2017-Oct-16 19:00N 34°39' E 135°28'0 0.0
2017-Oct-16 18:30N 34°39' E 135°28'0 0.0
2017-Oct-16 18:00N 34°39' E 135°28'0 0.0
2017-Oct-16 17:30N 34°39' E 135°28'0 0.0
2017-Oct-16 17:00N 34°39' E 135°28'0 0.0
2017-Oct-16 16:30N 34°39' E 135°28'0 0.0
2017-Oct-16 16:00N 34°39' E 135°28'0 0.0
2017-Oct-16 15:30N 34°39' E 135°28'0 0.0
2017-Oct-16 15:00N 34°39' E 135°28'0 0.0
2017-Oct-16 14:29N 34°39' E 135°28'0 0.0
2017-Oct-16 13:30N 34°39' E 135°28'0 0.0
2017-Oct-16 13:00N 34°39' E 135°28'0 0.0
2017-Oct-16 12:29N 34°39' E 135°28'0 0.0
2017-Oct-16 12:00N 34°39' E 135°28'0 0.0
2017-Oct-16 11:30N 34°39' E 135°28'0 0.0
2017-Oct-16 10:59N 34°39' E 135°28'0 0.0
2017-Oct-16 10:26N 34°39' E 135°28'0 0.0
2017-Oct-16 10:00N 34°39' E 135°28'0 0.0
2017-Oct-16 09:25N 34°39' E 135°28'0 0.6
2017-Oct-16 08:59N 34°39' E 135°28'3 5.8
2017-Oct-16 08:29N 34°39' E 135°24'0 0.2
2017-Oct-16 08:00N 34°39' E 135°24'1 1.4
2017-Oct-16 07:30N 34°40' E 135°24'0 0.0
2017-Oct-16 07:00N 34°40' E 135°24'0 0.0
2017-Oct-16 06:30N 34°40' E 135°24'0 0.0
2017-Oct-16 06:00N 34°40' E 135°24'2 4.8
2017-Oct-16 05:30N 34°37' E 135°25'3 5.2
2017-Oct-16 05:00N 34°39' E 135°27'0 0.8
2017-Oct-16 04:30N 34°39' E 135°28'0 0.0
2017-Oct-16 00:50N 34°39' E 135°28'0 0.0
2017-Oct-16 00:29N 34°39' E 135°28'0 0.0
2017-Oct-15 23:49N 34°39' E 135°28'0 0.0
2017-Oct-15 23:30N 34°39' E 135°28'3 6.5
2017-Oct-15 23:00N 34°39' E 135°24'1 1.0
2017-Oct-15 22:29N 34°38' E 135°24'1 1.4
2017-Oct-15 22:00N 34°38' E 135°23'4 7.2
2017-Oct-15 21:30N 34°39' E 135°27'0 0.9
2017-Oct-15 21:00N 34°39' E 135°28'0 0.0
2017-Oct-15 20:29N 34°39' E 135°28'0 0.0
2017-Oct-15 20:00N 34°39' E 135°28'0 0.0
2017-Oct-15 19:30N 34°39' E 135°28'0 0.0
2017-Oct-15 19:00N 34°39' E 135°28'0 0.0
2017-Oct-15 18:30N 34°39' E 135°28'0 0.0
2017-Oct-15 18:00N 34°39' E 135°28'0 0.0
2017-Oct-15 17:30N 34°39' E 135°28'0 0.0
2017-Oct-15 17:00N 34°39' E 135°28'0 0.0
2017-Oct-15 16:30N 34°39' E 135°28'0 0.0
2017-Oct-15 16:00N 34°39' E 135°28'0 0.0
2017-Oct-15 15:30N 34°39' E 135°28'0 0.0
2017-Oct-15 15:00N 34°39' E 135°28'0 0.0
2017-Oct-15 14:00N 34°39' E 135°28'0 0.0
2017-Oct-15 13:30N 34°39' E 135°28'0 0.0
2017-Oct-15 13:00N 34°39' E 135°28'0 0.0
2017-Oct-15 12:30N 34°39' E 135°28'2 3.7
2017-Oct-15 12:00N 34°39' E 135°26'0 0.4
2017-Oct-15 11:30N 34°39' E 135°26'1 2.2
2017-Oct-15 11:00N 34°39' E 135°27'1 1.8
2017-Oct-15 10:30N 34°39' E 135°28'0 0.0
2017-Oct-15 09:59N 34°39' E 135°28'0 0.0
2017-Oct-15 09:30N 34°39' E 135°28'0 0.0
2017-Oct-15 08:59N 34°39' E 135°28'0 0.0
2017-Oct-15 08:29N 34°39' E 135°28'0 0.0
2017-Oct-15 08:00N 34°39' E 135°28'0 0.0
2017-Oct-15 07:30N 34°39' E 135°28'0 0.0
2017-Oct-15 06:47N 34°39' E 135°28'0 0.0
2017-Oct-15 06:26N 34°39' E 135°28'0 0.0
2017-Oct-15 05:38N 34°39' E 135°28'0 0.0
2017-Oct-15 05:18N 34°39' E 135°28'0 0.0
2017-Oct-15 04:59N 34°39' E 135°28'0 0.0
2017-Oct-15 04:25N 34°39' E 135°28'0 0.0
2017-Oct-15 04:00N 34°39' E 135°28'0 0.0
2017-Oct-15 03:29N 34°39' E 135°28'1 1.5
2017-Oct-15 03:00N 34°39' E 135°27'2 5.0
2017-Oct-15 02:30N 34°39' E 135°24'1 1.8
2017-Oct-15 02:00N 34°38' E 135°23'2 3.5
2017-Oct-15 01:30N 34°40' E 135°24'0 0.0
2017-Oct-15 01:00N 34°40' E 135°24'0 0.0
2017-Oct-15 00:26N 34°40' E 135°24'0 0.0
2017-Oct-15 00:00N 34°40' E 135°24'0 0.0
2017-Oct-14 23:30N 34°40' E 135°24'1 1.3
2017-Oct-14 23:00N 34°39' E 135°25'1 1.4
2017-Oct-14 22:30N 34°39' E 135°24'1 1.9
2017-Oct-14 21:59N 34°38' E 135°24'3 6.0
2017-Oct-14 21:30N 34°39' E 135°27'1 1.7
2017-Oct-14 21:00N 34°39' E 135°28'0 0.0
2017-Oct-14 20:30N 34°39' E 135°28'0 0.0
2017-Oct-14 19:59N 34°39' E 135°28'0 0.0
2017-Oct-14 19:30N 34°39' E 135°28'0 0.0
2017-Oct-14 19:00N 34°39' E 135°28'0 0.0
2017-Oct-14 18:30N 34°39' E 135°28'0 0.0
2017-Oct-14 18:00N 34°39' E 135°28'0 0.0
2017-Oct-14 17:30N 34°39' E 135°28'0 0.0
2017-Oct-14 17:00N 34°39' E 135°28'0 0.0
2017-Oct-14 16:30N 34°39' E 135°28'0 0.0
2017-Oct-14 16:00N 34°39' E 135°28'0 0.0
2017-Oct-14 15:30N 34°39' E 135°28'0 0.0
2017-Oct-14 14:59N 34°39' E 135°28'0 0.0
2017-Oct-14 14:30N 34°39' E 135°28'0 0.0
2017-Oct-14 14:00N 34°39' E 135°28'0 0.0
2017-Oct-14 13:28N 34°39' E 135°28'0 0.0
2017-Oct-14 13:00N 34°39' E 135°28'0 0.0
2017-Oct-14 12:30N 34°39' E 135°28'0 0.0
2017-Oct-14 12:00N 34°39' E 135°28'1 2.0
2017-Oct-14 11:30N 34°39' E 135°27'1 2.4
2017-Oct-14 11:00N 34°39' E 135°26'0 0.2
2017-Oct-14 10:29N 34°39' E 135°26'1 2.1
2017-Oct-14 10:00N 34°39' E 135°26'1 2.3
2017-Oct-14 09:28N 34°39' E 135°28'0 0.0
2017-Oct-14 09:00N 34°39' E 135°28'0 0.0
2017-Oct-14 08:30N 34°39' E 135°28'0 0.0
2017-Oct-14 07:59N 34°39' E 135°28'0 0.0
2017-Oct-14 07:28N 34°39' E 135°28'0 0.0
2017-Oct-14 06:53N 34°39' E 135°28'0 0.0
2017-Oct-14 06:30N 34°39' E 135°28'0 0.0
2017-Oct-14 00:33N 34°39' E 135°28'0 9.3
2017-Oct-14 00:30N 34°39' E 135°27'1 2.8
2017-Oct-14 00:00N 34°40' E 135°26'2 3.0
2017-Oct-13 23:30N 34°39' E 135°24'1 1.6
2017-Oct-13 23:00N 34°40' E 135°24'0 0.0
2017-Oct-13 22:30N 34°40' E 135°24'0 0.0
2017-Oct-13 22:00N 34°40' E 135°24'1 1.6
2017-Oct-13 21:30N 34°39' E 135°25'1 1.6
2017-Oct-13 21:00N 34°39' E 135°26'0 0.0
2017-Oct-13 20:30N 34°39' E 135°26'2 3.7
2017-Oct-13 20:00N 34°39' E 135°28'0 0.0
2017-Oct-13 19:29N 34°39' E 135°28'0 0.0
2017-Oct-13 18:57N 34°39' E 135°28'0 0.0
2017-Oct-13 18:27N 34°39' E 135°28'0 0.0
2017-Oct-13 18:00N 34°39' E 135°28'0 0.0
2017-Oct-13 17:30N 34°39' E 135°28'0 0.0
2017-Oct-13 17:00N 34°39' E 135°28'0 0.0
2017-Oct-13 16:30N 34°39' E 135°28'0 0.0
2017-Oct-13 16:00N 34°39' E 135°28'0 0.0
2017-Oct-13 15:30N 34°39' E 135°28'0 0.0
2017-Oct-13 15:00N 34°39' E 135°28'0 0.0
2017-Oct-13 14:30N 34°39' E 135°28'0 0.0
2017-Oct-13 14:00N 34°39' E 135°28'0 0.0
2017-Oct-13 13:30N 34°39' E 135°28'0 0.0
2017-Oct-13 13:00N 34°39' E 135°28'0 0.0
2017-Oct-13 12:30N 34°39' E 135°28'0 0.0
2017-Oct-13 12:00N 34°39' E 135°28'0 0.0
2017-Oct-13 11:28N 34°39' E 135°28'0 0.0
2017-Oct-13 11:00N 34°39' E 135°28'0 0.0
2017-Oct-13 10:30N 34°39' E 135°28'0 0.0
2017-Oct-13 10:00N 34°39' E 135°28'0 0.0
2017-Oct-13 09:29N 34°39' E 135°28'0 0.0
2017-Oct-13 09:00N 34°39' E 135°28'0 0.0
2017-Oct-13 08:26N 34°39' E 135°28'0 0.0
2017-Oct-13 06:32N 34°39' E 135°28'0 0.0
2017-Oct-13 04:17N 34°39' E 135°28'3 9.5
2017-Oct-13 04:00N 34°39' E 135°25'5 3.0
2017-Oct-13 02:13N 34°33' E 135°25'2 4.2
2017-Oct-13 01:45N 34°33' E 135°23'2 9.6
2017-Oct-13 01:30N 34°33' E 135°20'0 0.9
2017-Oct-13 01:00N 34°34' E 135°20'2 3.8
2017-Oct-13 00:30N 34°35' E 135°21'510.3
2017-Oct-13 00:00N 34°39' E 135°26'1 2.4
2017-Oct-12 23:24N 34°39' E 135°28'0 0.0
2017-Oct-12 22:58N 34°39' E 135°28'0 0.0
2017-Oct-12 22:30N 34°39' E 135°28'0 0.0
2017-Oct-12 22:00N 34°39' E 135°28'0 0.0
2017-Oct-12 21:23N 34°39' E 135°28'0 0.0
2017-Oct-12 20:59N 34°39' E 135°28'0 0.0
2017-Oct-12 20:29N 34°39' E 135°28'0 0.0
2017-Oct-12 20:00N 34°39' E 135°28'0 0.0
2017-Oct-12 19:30N 34°39' E 135°28'0 0.0
2017-Oct-12 19:00N 34°39' E 135°28'0 0.0
2017-Oct-12 18:30N 34°39' E 135°28'0 0.0
2017-Oct-12 18:00N 34°39' E 135°28'0 0.0
2017-Oct-12 17:30N 34°39' E 135°28'0 0.0
2017-Oct-12 17:00N 34°39' E 135°28'0 0.0
2017-Oct-12 16:30N 34°39' E 135°28'0 0.0
2017-Oct-12 16:00N 34°39' E 135°28'0 0.0
2017-Oct-12 15:30N 34°39' E 135°28'0 0.0
2017-Oct-12 15:00N 34°39' E 135°28'0 0.0
2017-Oct-12 14:30N 34°39' E 135°28'0 0.0
2017-Oct-12 14:00N 34°39' E 135°28'0 0.0
2017-Oct-12 13:30N 34°39' E 135°28'0 0.0
2017-Oct-12 13:00N 34°39' E 135°28'0 0.0
2017-Oct-12 12:28N 34°39' E 135°28'0 0.0
2017-Oct-12 11:59N 34°39' E 135°28'0 0.0
2017-Oct-12 11:28N 34°39' E 135°28'0 0.0
2017-Oct-12 11:00N 34°39' E 135°28'0 0.0
2017-Oct-12 10:30N 34°39' E 135°28'0 0.0
2017-Oct-12 10:00N 34°39' E 135°28'0 0.0
2017-Oct-12 09:27N 34°39' E 135°28'0 0.0
2017-Oct-12 08:54N 34°39' E 135°28'0 0.0
2017-Oct-12 08:18N 34°39' E 135°28'0 0.0
2017-Oct-12 07:00N 34°39' E 135°28'0 0.0
2017-Oct-12 06:29N 34°39' E 135°28'0 0.0
2017-Oct-12 04:15N 34°39' E 135°28'1 1.0
2017-Oct-12 03:15N 34°39' E 135°27'1 4.5
2017-Oct-12 03:00N 34°40' E 135°26'0 0.5
2017-Oct-12 02:28N 34°40' E 135°26'1 2.3
2017-Oct-12 02:00N 34°39' E 135°27'1 0.3
2017-Oct-11 23:21N 34°39' E 135°28'0 0.0
2017-Oct-11 23:00N 34°39' E 135°28'0 0.0
2017-Oct-11 22:30N 34°39' E 135°28'0 0.0
2017-Oct-11 22:00N 34°39' E 135°28'0 0.0
2017-Oct-11 21:29N 34°39' E 135°28'0 0.0
2017-Oct-11 20:59N 34°39' E 135°28'0 0.0
2017-Oct-11 20:28N 34°39' E 135°28'0 0.0
2017-Oct-11 20:00N 34°39' E 135°28'0 0.0
2017-Oct-11 19:30N 34°39' E 135°28'0 0.0
2017-Oct-11 19:00N 34°39' E 135°28'0 0.0
2017-Oct-11 18:30N 34°39' E 135°28'0 0.0
2017-Oct-11 18:00N 34°39' E 135°28'0 0.0
2017-Oct-11 17:27N 34°39' E 135°28'0 0.0
2017-Oct-11 17:00N 34°39' E 135°28'6 0.4
2017-Oct-11 00:00N 34°33' E 135°25'1 1.2
2017-Oct-10 23:11N 34°33' E 135°26'1 6.9
2017-Oct-10 22:58N 34°34' E 135°24'510.5
2017-Oct-10 22:30N 34°38' E 135°24'3 5.6
2017-Oct-10 21:58N 34°39' E 135°28'0 0.0
2017-Oct-10 21:30N 34°39' E 135°28'0 0.0
2017-Oct-10 20:59N 34°39' E 135°28'0 0.0
2017-Oct-10 20:30N 34°39' E 135°28'0 0.0
2017-Oct-10 20:00N 34°39' E 135°28'0 0.0
2017-Oct-10 19:30N 34°39' E 135°28'0 0.0
2017-Oct-10 18:59N 34°39' E 135°28'0 0.0
2017-Oct-10 18:30N 34°39' E 135°28'0 0.0
2017-Oct-10 18:00N 34°39' E 135°28'0 0.0
2017-Oct-10 17:30N 34°39' E 135°28'0 0.0
2017-Oct-10 17:00N 34°39' E 135°28'0 0.0
2017-Oct-10 16:30N 34°39' E 135°28'0 0.0
2017-Oct-10 16:00N 34°39' E 135°28'0 0.0
2017-Oct-10 15:30N 34°39' E 135°28'0 0.0
2017-Oct-10 15:00N 34°39' E 135°28'0 0.0
2017-Oct-10 13:59N 34°39' E 135°28'0 0.0
2017-Oct-10 13:30N 34°39' E 135°28'0 0.0
2017-Oct-10 13:00N 34°39' E 135°28'0 0.0
2017-Oct-10 12:29N 34°39' E 135°28'0 0.0
2017-Oct-10 11:56N 34°39' E 135°28'0 0.0
2017-Oct-10 11:30N 34°39' E 135°28'0 0.0
2017-Oct-10 11:00N 34°39' E 135°28'0 0.0
2017-Oct-10 10:30N 34°39' E 135°28'0 0.0
2017-Oct-10 10:00N 34°39' E 135°28'0 0.0
2017-Oct-10 09:30N 34°39' E 135°28'0 0.0
2017-Oct-10 08:59N 34°39' E 135°28'0 0.0
2017-Oct-10 08:27N 34°39' E 135°28'0 0.0
2017-Oct-10 07:58N 34°39' E 135°28'0 0.0
2017-Oct-10 07:30N 34°39' E 135°28'0 0.0
2017-Oct-10 05:40N 34°39' E 135°28'0 0.0
2017-Oct-10 05:13N 34°39' E 135°28'0 0.0
2017-Oct-10 02:19N 34°39' E 135°28'0 1.5
2017-Oct-10 02:00N 34°39' E 135°27'4 8.3
2017-Oct-10 01:30N 34°36' E 135°24'2 4.3
2017-Oct-10 01:00N 34°34' E 135°24'0 0.3
2017-Oct-10 00:21N 34°34' E 135°24'2 5.1
2017-Oct-09 23:59N 34°36' E 135°24'0 0.0
2017-Oct-09 23:30N 34°36' E 135°24'0 0.0
2017-Oct-09 23:00N 34°36' E 135°24'0 0.0
2017-Oct-09 22:30N 34°36' E 135°24'0 0.0
2017-Oct-09 22:00N 34°36' E 135°24'2 3.3
2017-Oct-09 21:30N 34°38' E 135°23'2 3.4
2017-Oct-09 21:00N 34°39' E 135°24'0 0.2
2017-Oct-09 20:30N 34°39' E 135°24'3 6.0
2017-Oct-09 20:00N 34°39' E 135°28'0 0.0
2017-Oct-09 19:29N 34°39' E 135°28'0 0.0
2017-Oct-09 18:56N 34°39' E 135°28'0 0.0
2017-Oct-09 15:09N 34°39' E 135°28'0 0.0
2017-Oct-09 14:59N 34°39' E 135°28'0 0.0
2017-Oct-09 14:30N 34°39' E 135°28'0 0.0
2017-Oct-09 14:00N 34°39' E 135°28'0 0.0
2017-Oct-09 13:30N 34°39' E 135°28'0 0.0
2017-Oct-09 13:00N 34°39' E 135°28'0 0.0
2017-Oct-09 12:30N 34°39' E 135°28'0 0.0
2017-Oct-09 12:00N 34°39' E 135°28'0 0.0
2017-Oct-09 11:30N 34°39' E 135°28'0 0.0
2017-Oct-09 11:00N 34°39' E 135°28'2 4.2
2017-Oct-09 10:30N 34°39' E 135°25'0 0.3
2017-Oct-09 10:00N 34°39' E 135°26'1 2.1
2017-Oct-09 09:30N 34°39' E 135°27'1 1.8
2017-Oct-09 08:58N 34°39' E 135°28'0 0.0
2017-Oct-09 08:19N 34°39' E 135°28'0 0.0
2017-Oct-09 02:29N 34°39' E 135°28'5 9.4
2017-Oct-09 02:00N 34°36' E 135°23'3 1.7
2017-Oct-09 00:12N 34°33' E 135°23'2 6.1
2017-Oct-08 23:55N 34°33' E 135°21'0 1.0
2017-Oct-08 23:30N 34°33' E 135°20'4 7.7
2017-Oct-08 23:00N 34°37' E 135°22'4 8.4
2017-Oct-08 22:30N 34°39' E 135°27'1 1.9
2017-Oct-08 22:00N 34°39' E 135°28'0 0.0
2017-Oct-08 21:30N 34°39' E 135°28'0 0.0
2017-Oct-08 21:00N 34°39' E 135°28'0 0.0
2017-Oct-08 20:30N 34°39' E 135°28'0 0.0
2017-Oct-08 20:00N 34°39' E 135°28'0 0.0
2017-Oct-08 19:27N 34°39' E 135°28'0 0.0
2017-Oct-08 18:59N 34°39' E 135°28'0 0.0
2017-Oct-08 18:21N 34°39' E 135°28'0 0.0
2017-Oct-08 18:00N 34°39' E 135°28'0 0.0
2017-Oct-08 17:30N 34°39' E 135°28'0 0.0
2017-Oct-08 17:00N 34°39' E 135°28'0 0.0
2017-Oct-08 16:30N 34°39' E 135°28'0 0.0
2017-Oct-08 16:00N 34°39' E 135°28'0 0.0
2017-Oct-08 15:22N 34°39' E 135°28'0 0.0
2017-Oct-08 15:00N 34°39' E 135°28'0 0.0
2017-Oct-08 14:30N 34°39' E 135°28'0 0.0
2017-Oct-08 14:00N 34°39' E 135°28'0 0.0
2017-Oct-08 13:30N 34°39' E 135°28'0 0.0
2017-Oct-08 13:00N 34°39' E 135°28'0 0.0
2017-Oct-08 12:30N 34°39' E 135°28'0 0.0
2017-Oct-08 11:58N 34°39' E 135°28'0 0.0
2017-Oct-08 11:30N 34°39' E 135°28'0 0.0
2017-Oct-08 11:00N 34°39' E 135°28'0 0.0
2017-Oct-08 10:28N 34°39' E 135°28'0 0.0
2017-Oct-08 09:58N 34°39' E 135°28'0 0.0
2017-Oct-08 09:27N 34°39' E 135°28'0 0.0
2017-Oct-08 08:59N 34°39' E 135°28'0 0.0
2017-Oct-08 08:26N 34°39' E 135°28'0 0.6
2017-Oct-08 07:39N 34°39' E 135°27'210.3
2017-Oct-08 07:30N 34°39' E 135°26'1 2.1
2017-Oct-08 06:59N 34°40' E 135°25'2 3.3
2017-Oct-08 06:27N 34°38' E 135°23'0 0.1
2017-Oct-08 06:00N 34°38' E 135°23'2 4.5
2017-Oct-08 05:29N 34°39' E 135°26'1 0.3
2017-Oct-08 01:11N 34°39' E 135°28'0 0.0
2017-Oct-08 00:58N 34°39' E 135°28'0 0.0
2017-Oct-08 00:30N 34°39' E 135°28'0 0.0
2017-Oct-08 00:00N 34°39' E 135°28'0 0.0
2017-Oct-07 23:30N 34°39' E 135°28'3 6.2
2017-Oct-07 23:00N 34°39' E 135°24'0 0.8
2017-Oct-07 22:30N 34°39' E 135°24'2 3.0
2017-Oct-07 22:01N 34°38' E 135°22'4 7.6
2017-Oct-07 21:30N 34°39' E 135°27'1 1.9
2017-Oct-07 21:00N 34°39' E 135°28'0 0.0
2017-Oct-07 20:27N 34°39' E 135°28'0 0.0
2017-Oct-07 19:52N 34°39' E 135°28'0 0.0
2017-Oct-07 19:28N 34°39' E 135°28'0 0.0
2017-Oct-07 19:00N 34°39' E 135°28'0 0.0
2017-Oct-07 18:27N 34°39' E 135°28'0 0.0
2017-Oct-07 17:56N 34°39' E 135°28'0 0.0
2017-Oct-07 17:29N 34°39' E 135°28'0 0.0
2017-Oct-07 17:00N 34°39' E 135°28'0 0.0
2017-Oct-07 16:25N 34°39' E 135°28'0 0.0
2017-Oct-07 15:52N 34°39' E 135°28'0 0.0
2017-Oct-07 15:30N 34°39' E 135°28'0 0.0
2017-Oct-07 14:59N 34°39' E 135°28'0 0.0
2017-Oct-07 14:30N 34°39' E 135°28'0 0.0
2017-Oct-07 13:59N 34°39' E 135°28'0 0.0
2017-Oct-07 13:30N 34°39' E 135°28'0 0.0
2017-Oct-07 12:59N 34°39' E 135°28'0 0.0
2017-Oct-07 12:25N 34°39' E 135°28'0 0.0
2017-Oct-07 11:58N 34°39' E 135°28'0 0.0
2017-Oct-07 11:30N 34°39' E 135°28'0 0.0
2017-Oct-07 11:00N 34°39' E 135°28'  

Dump ship's entire track history